Time;durP1;ratioP1;P1;durP2;ratioP2;P2;SDS_P1;SDS_P2;PMS_P1;PMS_P2;Temp;Humidity;BMP_temperature;BMP_pressure;BME280_temperature;BME280_humidity;BME280_pressure;Samples;Min_cycle;Max_cycle;Signal;HPM_P1;HPM_P2
2021/09/24 00:00:07;;;;;;;18.13;3.20;;;;;;;;;;5050989;28;20242;-70
2021/09/24 00:02:33;;;;;;;13.88;1.85;;;;;;;;;;5060978;28;20028;-71
2021/09/24 00:04:59;;;;;;;18.90;3.03;;;;;;;;;;5050502;28;20399;-70
2021/09/24 00:07:25;;;;;;;14.10;2.97;;;;;;;;;;5063414;28;20505;-71
2021/09/24 00:09:51;;;;;;;17.90;2.40;;;;;;;;;;5065245;28;20295;-71
2021/09/24 00:12:17;;;;;;;16.88;3.03;;;;;;;;;;5060613;28;20036;-71
2021/09/24 00:14:43;;;;;;;17.23;3.55;;;;;;;;;;5068106;28;20111;-70
2021/09/24 00:17:09;;;;;;;17.13;2.35;;;;;;;;;;5062450;28;20537;-70
2021/09/24 00:19:35;;;;;;;14.73;3.17;;;;;;;;;;5064979;28;20025;-71
2021/09/24 00:22:01;;;;;;;16.02;2.35;;;;;;;;;;5055521;28;20435;-70
2021/09/24 00:24:27;;;;;;;17.20;1.98;;;;;;;;;;5053436;28;20078;-71
2021/09/24 00:26:53;;;;;;;15.80;3.08;;;;;;;;;;5062316;28;20116;-70
2021/09/24 00:29:19;;;;;;;16.27;2.50;;;;;;;;;;5062612;28;20036;-70
2021/09/24 00:31:45;;;;;;;18.60;3.25;;;;;;;;;;5061333;28;20039;-70
2021/09/24 00:34:10;;;;;;;14.95;2.05;;;;;;;;;;5064269;28;20028;-70
2021/09/24 00:36:36;;;;;;;15.45;3.45;;;19.60;76.90;;;;;;5064616;28;20063;-70
2021/09/24 00:39:01;;;;;;;16.30;2.28;;;14.00;96.20;;;;;;5052867;28;20108;-71
2021/09/24 00:41:27;;;;;;;14.90;2.58;;;13.80;96.50;;;;;;5064957;28;20458;-70
2021/09/24 00:43:52;;;;;;;17.25;2.80;;;13.80;96.70;;;;;;5066767;28;20027;-71
2021/09/24 00:46:18;;;;;;;19.80;2.38;;;13.80;97.00;;;;;;5068235;28;20795;-71
2021/09/24 00:48:43;;;;;;;19.17;3.25;;;13.80;97.50;;;;;;5062041;28;20108;-70
2021/09/24 00:51:09;;;;;;;12.77;2.83;;;13.70;97.40;;;;;;5061683;28;20036;-71
2021/09/24 00:53:34;;;;;;;11.63;2.67;;;13.70;97.60;;;;;;5055686;28;20047;-70
2021/09/24 00:56:00;;;;;;;19.92;3.35;;;13.70;97.70;;;;;;5055496;28;20032;-70
2021/09/24 00:58:26;;;;;;;8.95;2.58;;;13.70;97.90;;;;;;5054068;28;20147;-71
2021/09/24 01:00:52;;;;;;;18.25;2.50;;;13.60;98.10;;;;;;5065865;28;20029;-70
2021/09/24 01:03:17;;;;;;;12.35;2.22;;;13.60;98.30;;;;;;5056597;28;20709;-71
2021/09/24 01:05:43;;;;;;;11.13;2.33;;;13.60;98.40;;;;;;5064583;28;20032;-70
2021/09/24 01:08:09;;;;;;;18.77;2.67;;;13.60;98.40;;;;;;5065665;28;20029;-70
2021/09/24 01:10:34;;;;;;;22.55;2.40;;;13.60;98.40;;;;;;5050835;28;20179;-70
2021/09/24 01:13:00;;;;;;;18.67;2.72;;;13.60;98.40;;;;;;5047344;28;20112;-70
2021/09/24 01:15:26;;;;;;;13.93;2.53;;;13.60;98.50;;;;;;5057929;28;20051;-71
2021/09/24 01:17:51;;;;;;;8.88;1.95;;;13.60;98.40;;;;;;5058296;28;20025;-70
2021/09/24 01:20:20;;;;;;;16.98;2.60;;;13.70;98.20;;;;;;5062723;28;20433;-70
2021/09/24 01:22:48;;;;;;;14.50;2.30;;;13.70;98.30;;;;;;5064240;28;20035;-70
2021/09/24 01:25:16;;;;;;;16.52;2.50;;;13.70;98.30;;;;;;5062269;28;20040;-70
2021/09/24 01:27:42;;;;;;;18.15;3.30;;;13.70;98.20;;;;;;5042952;28;20033;-71
2021/09/24 01:30:08;;;;;;;19.17;2.90;;;13.80;98.10;;;;;;5052318;28;20130;-71
2021/09/24 01:32:34;;;;;;;11.85;2.67;;;13.70;98.10;;;;;;5052190;28;20020;-70
2021/09/24 01:35:00;;;;;;;13.07;2.40;;;13.80;98.00;;;;;;5060097;28;20078;-71
2021/09/24 01:37:26;;;;;;;10.98;2.53;;;13.80;98.20;;;;;;5063683;28;20492;-70
2021/09/24 01:39:52;;;;;;;17.10;2.40;;;13.80;98.10;;;;;;5063711;28;20037;-71
2021/09/24 01:42:21;;;;;;;12.02;2.67;;;13.80;98.00;;;;;;5059421;28;20414;-71
2021/09/24 01:44:47;;;;;;;16.58;2.53;;;13.80;98.00;;;;;;5060462;28;20029;-70
2021/09/24 01:47:12;;;;;;;13.35;2.30;;;13.80;98.00;;;;;;5059988;28;20037;-70
2021/09/24 01:49:38;;;;;;;12.10;2.05;;;13.90;98.00;;;;;;5065518;28;20032;-71
2021/09/24 01:52:03;;;;;;;11.18;2.35;;;13.80;97.80;;;;;;5063078;28;20529;-70
2021/09/24 01:54:32;;;;;;;16.65;2.53;;;13.80;97.60;;;;;;5063514;28;20020;-70
2021/09/24 01:56:58;;;;;;;15.73;1.98;;;13.80;97.80;;;;;;5065449;28;20050;-70
2021/09/24 01:59:24;;;;;;;18.05;3.15;;;13.80;97.90;;;;;;5063206;28;20134;-70
2021/09/24 02:01:49;;;;;;;12.65;2.50;;;13.80;98.20;;;;;;5051075;28;20026;-71
2021/09/24 02:04:17;;;;;;;23.58;2.75;;;13.80;98.20;;;;;;5051640;28;20017;-71
2021/09/24 02:06:42;;;;;;;14.82;2.95;;;13.80;98.00;;;;;;5055952;28;20036;-70
2021/09/24 02:09:08;;;;;;;19.70;2.65;;;13.80;98.00;;;;;;5058329;28;20479;-70
2021/09/24 02:11:33;;;;;;;17.42;3.05;;;13.80;98.10;;;;;;5062447;28;20032;-71
2021/09/24 02:13:59;;;;;;;18.40;2.00;;;13.80;98.20;;;;;;5066664;28;20032;-71
2021/09/24 02:16:25;;;;;;;15.95;1.95;;;13.80;98.30;;;;;;5058110;28;20039;-70
2021/09/24 02:18:50;;;;;;;14.00;2.90;;;13.80;98.50;;;;;;5062021;28;20078;-70
2021/09/24 02:21:16;;;;;;;13.50;2.15;;;13.80;98.70;;;;;;5057481;28;20376;-71
2021/09/24 02:23:41;;;;;;;11.65;2.05;;;13.70;98.90;;;;;;5062508;28;20028;-71
2021/09/24 02:26:07;;;;;;;10.25;2.17;;;13.80;98.70;;;;;;5062904;28;20041;-70
2021/09/24 02:28:33;;;;;;;18.05;2.42;;;13.80;98.70;;;;;;5066337;28;20096;-70
2021/09/24 02:30:58;;;;;;;17.23;2.05;;;13.80;98.80;;;;;;5060922;28;20041;-71
2021/09/24 02:33:24;;;;;;;10.75;2.05;;;13.80;99.00;;;;;;5062054;28;20024;-70
2021/09/24 02:35:49;;;;;;;14.98;2.08;;;13.80;99.10;;;;;;5062579;28;20021;-71
2021/09/24 02:38:15;;;;;;;15.32;2.55;;;13.70;99.20;;;;;;5050611;28;20062;-71
2021/09/24 02:40:40;;;;;;;17.02;3.33;;;13.80;99.30;;;;;;5051633;28;20032;-70
2021/09/24 02:43:06;;;;;;;15.35;2.38;;;13.70;99.50;;;;;;5061683;28;20020;-70
2021/09/24 02:45:31;;;;;;;20.48;2.97;;;13.70;99.80;;;;;;5055142;28;20035;-71
2021/09/24 02:47:57;;;;;;;17.30;2.58;;;13.70;99.90;;;;;;5064535;28;20054;-70
2021/09/24 02:50:22;;;;;;;16.10;1.55;;;13.70;99.90;;;;;;5060032;28;20107;-70
2021/09/24 02:52:48;;;;;;;35.75;2.55;;;13.70;99.90;;;;;;5059358;28;20542;-71
2021/09/24 02:55:15;;;;;;;20.75;2.47;;;13.70;99.90;;;;;;5062350;28;21003;-71
2021/09/24 02:57:41;;;;;;;17.60;2.30;;;13.80;99.90;;;;;;5061273;28;20041;-70
2021/09/24 03:00:08;;;;;;;12.07;2.42;;;13.70;99.90;;;;;;5061833;28;20053;-70
2021/09/24 03:02:35;;;;;;;9.52;1.95;;;13.70;99.90;;;;;;5055926;28;20383;-71
2021/09/24 03:05:02;;;;;;;13.35;2.10;;;13.70;99.90;;;;;;5051153;28;20056;-71
2021/09/24 03:07:28;;;;;;;16.75;2.65;;;13.70;99.90;;;;;;5056805;28;20021;-71
2021/09/24 03:09:53;;;;;;;12.90;2.38;;;13.70;99.90;;;;;;5046739;28;20585;-71
2021/09/24 03:12:19;;;;;;;18.38;2.65;;;13.70;99.90;;;;;;5059792;28;20040;-71
2021/09/24 03:14:44;;;;;;;10.40;2.45;;;13.70;99.90;;;;;;5057648;28;20090;-71
2021/09/24 03:17:09;;;;;;;12.88;2.58;;;13.70;99.90;;;;;;5063441;28;20107;-71
2021/09/24 03:19:35;;;;;;;18.83;2.40;;;13.70;99.90;;;;;;5057196;28;20032;-71
2021/09/24 03:22:00;;;;;;;19.00;2.72;;;13.70;99.90;;;;;;5064613;28;20483;-70
2021/09/24 03:24:26;;;;;;;12.45;2.67;;;13.70;99.90;;;;;;5052854;28;20391;-70
2021/09/24 03:26:51;;;;;;;13.93;2.97;;;13.70;99.90;;;;;;5054492;28;20032;-71
2021/09/24 03:29:17;;;;;;;14.07;2.28;;;13.70;99.90;;;;;;5058233;28;20056;-70
2021/09/24 03:31:42;;;;;;;10.75;2.30;;;13.70;99.90;;;;;;5055107;28;20109;-70
2021/09/24 03:34:09;;;;;;;21.00;2.90;;;13.70;99.90;;;;;;5051817;28;20024;-71
2021/09/24 03:36:35;;;;;;;16.60;1.85;;;13.70;99.90;;;;;;5060073;28;20033;-71
2021/09/24 03:39:04;;;;;;;13.45;2.35;;;13.70;99.90;;;;;;5052164;28;20028;-70
2021/09/24 03:41:29;;;;;;;15.80;2.10;;;13.70;99.90;;;;;;5063736;28;20798;-71
2021/09/24 03:43:55;;;;;;;13.63;2.13;;;13.70;99.90;;;;;;5067820;28;20111;-71
2021/09/24 03:46:20;;;;;;;7.47;1.45;;;13.70;99.90;;;;;;5054478;28;20025;-70
2021/09/24 03:48:45;;;;;;;11.57;2.10;;;13.70;99.90;;;;;;5065540;28;20047;-71
2021/09/24 03:51:11;;;;;;;15.25;2.30;;;13.70;99.90;;;;;;5066766;28;20459;-70
2021/09/24 03:53:37;;;;;;;21.90;2.90;;;13.70;99.90;;;;;;5063363;28;20024;-71
2021/09/24 03:56:02;;;;;;;10.38;2.08;;;13.70;99.90;;;;;;5067768;28;20099;-70
2021/09/24 03:58:28;;;;;;;18.30;2.63;;;13.70;99.90;;;;;;5049487;28;20052;-71
2021/09/24 04:00:54;;;;;;;12.73;2.05;;;13.70;99.90;;;;;;5060132;28;20537;-71
2021/09/24 04:03:20;;;;;;;8.48;1.70;;;13.70;99.90;;;;;;5063655;28;20518;-71
2021/09/24 04:05:46;;;;;;;18.55;2.38;;;13.60;99.90;;;;;;5063673;28;20028;-70
2021/09/24 04:08:13;;;;;;;11.48;2.63;;;13.60;99.90;;;;;;5064353;28;20521;-70
2021/09/24 04:10:40;;;;;;;22.95;2.30;;;13.60;99.90;;;;;;5062444;28;20024;-70
2021/09/24 04:13:08;;;;;;;16.90;2.08;;;13.60;99.90;;;;;;5062590;28;20036;-70
2021/09/24 04:15:34;;;;;;;13.00;2.72;;;13.60;99.90;;;;;;5070998;28;20028;-71
2021/09/24 04:17:59;;;;;;;8.57;2.08;;;13.60;99.90;;;;;;5062602;28;20035;-71
2021/09/24 04:20:25;;;;;;;13.00;1.95;;;13.50;99.90;;;;;;5061398;28;20769;-70
2021/09/24 04:22:50;;;;;;;18.75;2.47;;;13.50;99.90;;;;;;5066023;28;20521;-71
2021/09/24 04:25:16;;;;;;;15.07;2.03;;;13.50;99.90;;;;;;5067517;28;20078;-71
2021/09/24 04:27:41;;;;;;;9.98;2.03;;;13.50;99.90;;;;;;5067320;28;20028;-70
2021/09/24 04:30:08;;;;;;;18.05;2.47;;;13.50;99.90;;;;;;5064538;28;20487;-70
2021/09/24 04:32:33;;;;;;;14.43;2.90;;;13.50;99.90;;;;;;5061996;28;20239;-73
2021/09/24 04:35:00;;;;;;;17.00;2.08;;;13.50;99.90;;;;;;5068198;28;20065;-71
2021/09/24 04:37:26;;;;;;;14.38;2.30;;;13.50;99.90;;;;;;5079756;28;20020;-70
2021/09/24 04:39:51;;;;;;;22.85;3.20;;;13.50;99.90;;;;;;5069651;28;20040;-71
2021/09/24 04:42:17;;;;;;;11.20;1.80;;;13.60;99.90;;;;;;5063192;28;20452;-70
2021/09/24 04:44:42;;;;;;;15.52;2.00;;;13.60;99.90;;;;;;5060560;28;20016;-71
2021/09/24 04:47:08;;;;;;;17.88;2.67;;;13.60;99.90;;;;;;5066571;28;20029;-71
2021/09/24 04:49:34;;;;;;;16.80;2.53;;;13.60;99.90;;;;;;5071629;28;20491;-70
2021/09/24 04:51:59;;;;;;;15.75;2.05;;;13.60;99.90;;;;;;5072113;28;20028;-71
2021/09/24 04:54:25;;;;;;;10.80;1.50;;;13.60;99.90;;;;;;5071066;28;20033;-70
2021/09/24 04:56:50;;;;;;;16.13;2.95;;;13.60;99.90;;;;;;5063290;28;20500;-70
2021/09/24 04:59:16;;;;;;;15.20;2.40;;;13.50;99.90;;;;;;5062505;28;20036;-70
2021/09/24 05:01:41;;;;;;;16.45;1.92;;;13.50;99.90;;;;;;5054202;28;20383;-70
2021/09/24 05:04:07;;;;;;;22.52;2.55;;;13.60;99.90;;;;;;5062937;28;20021;-70
2021/09/24 05:06:32;;;;;;;14.05;2.10;;;13.60;99.90;;;;;;5063961;28;20060;-70
2021/09/24 05:08:58;;;;;;;18.42;3.03;;;13.50;99.90;;;;;;5054151;28;20103;-70
2021/09/24 05:11:23;;;;;;;12.63;2.17;;;13.50;99.90;;;;;;5061741;28;20048;-70
2021/09/24 05:13:49;;;;;;;9.90;2.03;;;13.60;99.90;;;;;;5066540;28;20127;-71
2021/09/24 05:16:15;;;;;;;9.68;1.80;;;13.60;99.90;;;;;;5066688;28;20157;-70
2021/09/24 05:18:42;;;;;;;16.95;2.60;;;13.60;99.90;;;;;;5062965;28;20420;-70
2021/09/24 05:21:08;;;;;;;9.93;2.28;;;13.60;99.90;;;;;;5053523;28;20474;-70
2021/09/24 05:23:33;;;;;;;15.00;2.60;;;13.60;99.90;;;;;;5065790;28;20033;-69
2021/09/24 05:25:59;;;;;;;23.20;2.42;;;13.60;99.90;;;;;;5059993;28;20035;-69
2021/09/24 05:28:25;;;;;;;18.70;2.63;;;13.60;99.90;;;;;;5061117;28;20055;-72
2021/09/24 05:30:50;;;;;;;11.52;2.47;;;13.60;99.90;;;;;;5059075;28;20471;-72
2021/09/24 05:33:16;;;;;;;11.85;2.42;;;13.50;99.90;;;;;;5060963;28;20094;-73
2021/09/24 05:35:42;;;;;;;15.18;2.65;;;13.50;99.90;;;;;;5053144;28;20020;-75
2021/09/24 05:38:07;;;;;;;15.57;2.45;;;13.50;99.90;;;;;;5057695;28;20448;-73
2021/09/24 05:40:33;;;;;;;19.85;3.08;;;13.50;99.90;;;;;;5063609;28;20100;-72
2021/09/24 05:43:01;;;;;;;8.55;2.15;;;13.50;99.90;;;;;;5055089;28;20083;-72
2021/09/24 05:45:27;;;;;;;17.98;4.00;;;13.50;99.90;;;;;;5064596;28;20024;-71
2021/09/24 05:47:52;;;;;;;9.68;2.20;;;13.50;99.90;;;;;;5050725;28;20091;-69
2021/09/24 05:50:18;;;;;;;13.38;2.58;;;13.50;99.90;;;;;;5057287;28;20027;-70
2021/09/24 05:52:47;;;;;;;11.32;2.47;;;13.50;99.90;;;;;;5055552;28;20556;-69
2021/09/24 05:55:15;;;;;;;12.82;2.40;;;13.50;99.90;;;;;;5052269;28;20029;-70
2021/09/24 05:57:41;;;;;;;13.80;2.40;;;13.50;99.90;;;;;;5052330;28;20063;-69
2021/09/24 06:00:09;;;;;;;5.60;1.70;;;13.50;99.90;;;;;;5058966;28;20721;-69
2021/09/24 06:02:34;;;;;;;15.48;2.75;;;13.40;99.90;;;;;;5055250;28;20036;-70
2021/09/24 06:05:00;;;;;;;14.88;2.30;;;13.40;99.90;;;;;;5062263;28;20097;-69
2021/09/24 06:07:26;;;;;;;22.10;3.05;;;13.40;99.90;;;;;;5063101;28;20020;-69
2021/09/24 06:09:52;;;;;;;12.73;2.63;;;13.40;99.90;;;;;;5053744;28;20476;-70
2021/09/24 06:12:18;;;;;;;25.08;3.20;;;13.40;99.90;;;;;;5063830;28;20040;-70
2021/09/24 06:14:44;;;;;;;19.92;2.80;;;13.40;99.90;;;;;;5064374;28;20032;-69
2021/09/24 06:17:11;;;;;;;15.75;2.20;;;13.40;99.90;;;;;;5060050;28;20600;-70
2021/09/24 06:19:37;;;;;;;19.60;3.30;;;13.40;99.90;;;;;;5064539;28;20107;-70
2021/09/24 06:22:03;;;;;;;21.63;2.47;;;13.40;99.90;;;;;;5062357;28;20024;-69
2021/09/24 06:24:29;;;;;;;18.08;2.72;;;13.40;99.90;;;;;;5066538;28;20539;-69
2021/09/24 06:26:54;;;;;;;15.70;2.38;;;13.40;99.90;;;;;;5061286;28;20024;-69
2021/09/24 06:29:20;;;;;;;16.83;2.45;;;13.40;99.90;;;;;;5063768;28;20032;-69
2021/09/24 06:31:45;;;;;;;15.65;2.55;;;13.40;99.90;;;;;;5063050;28;20012;-70
2021/09/24 06:34:11;;;;;;;14.48;2.45;;;13.40;99.90;;;;;;5058097;28;20033;-69
2021/09/24 06:36:36;;;;;;;13.40;2.30;;;13.40;99.90;;;;;;5058885;28;20039;-69
2021/09/24 06:39:03;;;;;;;11.57;2.20;;;13.40;99.90;;;;;;5060543;28;20021;-69
2021/09/24 06:41:29;;;;;;;10.68;2.25;;;13.40;99.90;;;;;;5064675;28;20031;-69
2021/09/24 06:43:55;;;;;;;19.85;3.05;;;13.40;99.90;;;;;;5064918;28;20012;-69
2021/09/24 06:46:20;;;;;;;24.30;3.53;;;13.40;99.90;;;;;;5064408;28;20016;-70
2021/09/24 06:48:45;;;;;;;17.70;2.58;;;13.40;99.90;;;;;;5064049;28;20107;-69
2021/09/24 06:51:11;;;;;;;17.23;2.35;;;13.40;99.90;;;;;;5061421;28;20025;-70
2021/09/24 06:53:36;;;;;;;16.33;2.40;;;13.50;99.90;;;;;;5064038;28;20036;-70
2021/09/24 06:56:03;;;;;;;12.18;2.33;;;13.50;99.90;;;;;;5056316;28;20406;-70
2021/09/24 06:58:28;;;;;;;11.52;1.73;;;13.50;99.90;;;;;;5060272;28;20048;-69
2021/09/24 07:00:54;;;;;;;13.32;2.38;;;13.50;99.90;;;;;;5058741;28;20032;-70
2021/09/24 07:03:19;;;;;;;12.57;3.00;;;13.60;99.90;;;;;;5060096;28;20099;-70
2021/09/24 07:05:45;;;;;;;18.75;2.35;;;13.60;99.90;;;;;;5061151;28;20386;-69
2021/09/24 07:08:10;;;;;;;11.15;2.22;;;13.60;99.90;;;;;;5060850;28;20047;-70
2021/09/24 07:10:36;;;;;;;21.90;2.58;;;13.60;99.90;;;;;;5050719;28;20036;-69
2021/09/24 07:13:01;;;;;;;16.10;2.60;;;13.60;99.90;;;;;;5056740;28;20028;-69
2021/09/24 07:15:26;;;;;;;19.67;3.22;;;13.60;99.90;;;;;;5061984;28;20028;-69
2021/09/24 07:17:52;;;;;;;18.95;2.97;;;13.70;99.90;;;;;;5064627;28;20032;-69
2021/09/24 07:20:17;;;;;;;14.45;2.25;;;13.60;99.90;;;;;;5063961;28;20027;-69
2021/09/24 07:22:43;;;;;;;12.75;2.17;;;13.70;99.90;;;;;;5056243;28;20032;-68
2021/09/24 07:25:09;;;;;;;11.30;2.38;;;13.70;99.90;;;;;;5057454;28;20021;-69
2021/09/24 07:27:35;;;;;;;18.73;2.80;;;13.70;99.90;;;;;;5062930;28;20032;-69
2021/09/24 07:30:00;;;;;;;11.38;1.98;;;13.70;99.90;;;;;;5061960;28;20024;-69
2021/09/24 07:32:26;;;;;;;19.73;2.55;;;13.70;99.90;;;;;;5059163;28;20028;-69
2021/09/24 07:34:51;;;;;;;10.15;2.42;;;13.80;99.90;;;;;;5061446;28;20048;-69
2021/09/24 07:37:17;;;;;;;14.77;2.33;;;13.80;99.90;;;;;;5057574;28;20442;-69
2021/09/24 07:39:42;;;;;;;9.93;2.17;;;13.80;99.90;;;;;;5062933;28;20440;-69
2021/09/24 07:42:08;;;;;;;14.23;2.50;;;13.80;99.90;;;;;;5053175;28;20086;-69
2021/09/24 07:44:34;;;;;;;19.67;2.42;;;13.90;99.90;;;;;;5063258;28;20036;-69
2021/09/24 07:47:00;;;;;;;12.93;2.55;;;14.00;99.90;;;;;;5062051;28;20158;-68
2021/09/24 07:49:25;;;;;;;24.05;2.35;;;14.00;99.90;;;;;;5063216;28;20035;-69
2021/09/24 07:51:53;;;;;;;16.00;2.72;;;14.10;99.90;;;;;;5062348;28;20029;-69
2021/09/24 07:54:21;;;;;;;17.75;2.13;;;14.10;99.90;;;;;;5060826;28;20035;-69
2021/09/24 07:56:47;;;;;;;13.65;2.25;;;14.10;99.90;;;;;;5046154;28;20031;-69
2021/09/24 07:59:13;;;;;;;14.60;2.20;;;14.20;99.90;;;;;;5051038;28;20029;-70
2021/09/24 08:01:38;;;;;;;13.98;2.88;;;14.20;99.90;;;;;;5061081;28;20039;-69
2021/09/24 08:04:04;;;;;;;8.32;2.05;;;14.30;99.90;;;;;;5060554;28;20055;-69
2021/09/24 08:06:29;;;;;;;14.13;2.65;;;14.30;99.90;;;;;;5062637;28;20020;-70
2021/09/24 08:08:55;;;;;;;12.95;2.78;;;14.40;99.90;;;;;;5063732;28;20501;-68
2021/09/24 08:11:20;;;;;;;15.73;2.38;;;14.50;99.90;;;;;;5051763;28;20025;-69
2021/09/24 08:13:46;;;;;;;17.67;3.78;;;14.50;99.90;;;;;;5053292;28;20131;-69
2021/09/24 08:16:11;;;;;;;11.02;2.22;;;14.60;99.90;;;;;;5060232;28;20484;-70
2021/09/24 08:18:37;;;;;;;15.93;2.63;;;14.60;99.90;;;;;;5060312;28;20031;-69
2021/09/24 08:21:03;;;;;;;12.88;2.20;;;14.70;99.90;;;;;;5060704;28;20029;-72
2021/09/24 08:23:29;;;;;;;9.73;2.35;;;14.80;99.90;;;;;;5059970;28;20035;-72
2021/09/24 08:25:55;;;;;;;22.77;2.78;;;14.80;99.90;;;;;;5061499;28;20166;-72
2021/09/24 08:28:20;;;;;;;17.48;2.40;;;14.90;99.90;;;;;;5063295;28;20039;-72
2021/09/24 08:30:46;;;;;;;16.65;3.25;;;14.90;99.90;;;;;;5044305;28;20388;-72
2021/09/24 08:33:14;;;;;;;8.05;2.13;;;15.00;99.90;;;;;;5068303;28;20761;-72
2021/09/24 08:35:44;;;;;;;13.40;1.98;;;15.10;99.90;;;;;;5070800;28;20027;-72
2021/09/24 08:38:10;;;;;;;15.05;2.88;;;15.10;99.90;;;;;;5062975;28;20516;-71
2021/09/24 08:40:36;;;;;;;12.98;2.45;;;15.20;99.90;;;;;;5063072;28;20032;-72
2021/09/24 08:43:02;;;;;;;12.48;2.40;;;15.30;99.90;;;;;;5055468;28;20491;-71
2021/09/24 08:45:30;;;;;;;17.90;3.20;;;15.30;99.40;;;;;;5064351;28;20066;-72
2021/09/24 08:48:05;;;;;;;14.13;2.30;;;15.40;99.50;;;;;;5063685;28;20037;-73
2021/09/24 08:50:33;;;;;;;16.35;2.75;;;15.40;99.60;;;;;;5060219;28;20028;-73
2021/09/24 08:53:00;;;;;;;13.95;3.10;;;15.50;99.40;;;;;;5079954;28;20103;-73
2021/09/24 08:55:26;;;;;;;15.10;2.63;;;15.60;98.20;;;;;;5063259;28;20032;-73
2021/09/24 08:57:52;;;;;;;15.77;2.72;;;15.60;97.90;;;;;;5058447;28;20040;-72
2021/09/24 09:00:19;;;;;;;15.77;2.75;;;15.70;97.50;;;;;;5066699;28;20099;-72
2021/09/24 09:03:02;;;;;;;17.58;3.00;;;15.70;97.30;;;;;;5063246;28;20278;-72
2021/09/24 09:05:35;;;;;;;12.85;2.35;;;15.80;97.10;;;;;;5055454;28;20051;-71
2021/09/24 09:08:24;;;;;;;16.55;2.08;;;15.80;96.40;;;;;;5053784;28;20036;-71
2021/09/24 09:11:18;;;;;;;8.27;1.83;;;15.80;96.40;;;;;;5059987;28;20089;-72
2021/09/24 09:13:53;;;;;;;18.27;1.70;;;15.90;96.90;;;;;;5046026;28;21407;-72
2021/09/24 09:16:36;;;;;;;18.90;3.33;;;16.00;96.80;;;;;;5055401;28;20029;-73
2021/09/24 09:19:17;;;;;;;12.77;2.38;;;16.10;96.60;;;;;;5059364;28;20475;-71
2021/09/24 09:21:45;;;;;;;18.63;2.42;;;16.20;96.90;;;;;;5063628;28;20039;-71
2021/09/24 09:24:31;;;;;;;15.52;2.00;;;16.30;96.00;;;;;;5058594;28;20029;-71
2021/09/24 09:27:16;;;;;;;15.13;2.03;;;16.40;95.70;;;;;;5056263;28;20848;-71
2021/09/24 09:30:11;;;;;;;14.95;2.45;;;16.50;94.90;;;;;;5064756;28;20032;-70
2021/09/24 09:32:58;;;;;;;8.43;1.70;;;16.60;95.00;;;;;;5073989;28;20025;-71
2021/09/24 09:35:23;;;;;;;15.77;2.17;;;16.60;93.40;;;;;;5047720;28;20442;-71
2021/09/24 09:37:49;;;;;;;13.70;2.30;;;16.60;95.10;;;;;;5063086;28;20054;-70
2021/09/24 09:40:16;;;;;;;15.88;2.60;;;16.60;93.60;;;;;;5064912;28;20024;-71
2021/09/24 09:42:44;;;;;;;11.55;2.08;;;16.70;93.80;;;;;;5058991;28;20028;-71
2021/09/24 09:45:13;;;;;;;14.70;2.45;;;16.80;93.70;;;;;;5061544;28;20124;-70
2021/09/24 09:47:40;;;;;;;12.65;2.15;;;16.80;93.30;;;;;;5064082;28;20470;-70
2021/09/24 09:50:37;;;;;;;8.43;1.75;;;16.90;93.80;;;;;;5067416;28;20036;-71
2021/09/24 09:53:04;;;;;;;13.55;2.30;;;17.00;93.90;;;;;;5038739;28;20029;-71
2021/09/24 09:55:46;;;;;;;15.75;2.95;;;17.00;93.60;;;;;;5057545;28;20037;-70
2021/09/24 09:58:11;;;;;;;16.52;2.67;;;17.00;93.30;;;;;;5062292;28;20061;-71
2021/09/24 10:00:51;;;;;;;12.77;2.20;;;17.00;93.30;;;;;;5063417;28;20471;-70
2021/09/24 10:03:17;;;;;;;10.70;2.22;;;17.10;93.10;;;;;;5061171;28;20051;-71
2021/09/24 10:05:43;;;;;;;11.30;1.73;;;17.10;93.20;;;;;;5065762;28;20614;-70
2021/09/24 10:08:30;;;;;;;10.32;1.63;;;17.10;93.20;;;;;;5061779;28;20039;-71
2021/09/24 10:11:01;;;;;;;11.15;2.45;;;17.10;93.00;;;;;;5060683;28;20052;-71
2021/09/24 10:13:28;;;;;;;11.90;2.13;;;17.20;92.70;;;;;;5055459;28;20510;-70
2021/09/24 10:15:54;;;;;;;8.55;1.70;;;17.20;94.00;;;;;;5057724;28;20061;-71
2021/09/24 10:18:20;;;;;;;8.05;1.95;;;17.30;93.60;;;;;;5055159;28;20762;-71
2021/09/24 10:20:47;;;;;;;6.82;1.70;;;17.30;93.00;;;;;;5061345;28;20037;-71
2021/09/24 10:23:13;;;;;;;6.47;2.08;;;17.30;93.20;;;;;;5056024;28;20151;-70
2021/09/24 10:25:41;;;;;;;9.25;2.30;;;17.30;93.10;;;;;;5064868;28;20052;-71
2021/09/24 10:28:08;;;;;;;9.35;2.50;;;17.40;93.20;;;;;;5063363;28;20020;-71
2021/09/24 10:30:35;;;;;;;12.98;2.28;;;17.50;93.10;;;;;;5057110;28;20471;-70
2021/09/24 10:33:06;;;;;;;6.35;2.50;;;17.60;93.30;;;;;;5062614;28;20071;-70
2021/09/24 10:35:52;;;;;;;7.22;1.77;;;17.70;94.00;;;;;;5064590;28;20032;-70
2021/09/24 10:38:21;;;;;;;11.02;1.90;;;17.90;92.60;;;;;;5056215;28;20068;-69
2021/09/24 10:41:03;;;;;;;10.02;2.08;;;18.00;92.40;;;;;;5059361;28;20028;-70
2021/09/24 10:43:47;;;;;;;17.75;2.20;;;18.00;93.00;;;;;;5043286;28;20035;-70
2021/09/24 10:46:27;;;;;;;11.95;1.73;;;17.90;92.80;;;;;;5059677;28;20158;-71
2021/09/24 10:49:11;;;;;;;11.00;2.35;;;17.90;93.20;;;;;;5053537;28;20028;-71
2021/09/24 10:51:38;;;;;;;12.73;2.22;;;17.90;93.50;;;;;;5054029;28;20152;-72
2021/09/24 10:54:16;;;;;;;12.52;2.40;;;17.90;93.60;;;;;;5061758;28;20032;-72
2021/09/24 10:57:01;;;;;;;8.40;2.13;;;17.90;93.00;;;;;;5061716;28;20028;-73
2021/09/24 10:59:33;;;;;;;9.15;2.33;;;17.90;93.20;;;;;;5058153;28;20403;-71
2021/09/24 11:02:00;;;;;;;10.25;1.73;;;17.90;93.20;;;;;;5067320;28;20103;-72
2021/09/24 11:04:45;;;;;;;9.45;1.50;;;17.80;93.60;;;;;;5052221;28;20016;-72
2021/09/24 11:07:25;;;;;;;7.45;1.75;;;17.80;93.80;;;;;;5058174;28;20399;-71
2021/09/24 11:09:52;;;;;;;11.30;2.20;;;17.70;93.80;;;;;;5050142;28;20135;-71
2021/09/24 11:12:18;;;;;;;9.02;1.55;;;17.80;93.90;;;;;;5063204;28;20090;-71
2021/09/24 11:14:43;;;;;;;5.45;1.77;;;17.80;94.50;;;;;;5060033;28;20036;-71
2021/09/24 11:17:11;;;;;;;3.90;1.10;;;17.80;94.40;;;;;;5061502;28;20051;-71
2021/09/24 11:19:36;;;;;;;11.07;2.22;;;17.80;94.30;;;;;;5060811;28;20033;-70
2021/09/24 11:22:35;;;;;;;9.38;1.88;;;17.80;94.90;;;;;;5050910;28;20530;-70
2021/09/24 11:25:00;;;;;;;5.50;1.55;;;17.70;95.20;;;;;;5061048;28;20033;-72
2021/09/24 11:27:39;;;;;;;9.55;1.65;;;17.60;95.40;;;;;;5053903;28;20364;-70
2021/09/24 11:30:05;;;;;;;8.43;1.88;;;17.50;95.80;;;;;;5039232;28;20032;-70
2021/09/24 11:32:32;;;;;;;5.10;1.50;;;17.40;96.00;;;;;;5049427;28;20051;-70
2021/09/24 11:34:58;;;;;;;9.52;1.55;;;17.40;96.60;;;;;;5053116;28;20427;-71
2021/09/24 11:37:27;;;;;;;8.65;1.60;;;17.30;97.00;;;;;;5057123;28;20121;-71
2021/09/24 11:40:04;;;;;;;10.15;1.92;;;17.30;97.10;;;;;;5048598;28;20048;-71
2021/09/24 11:42:32;;;;;;;5.65;1.70;;;17.20;97.90;;;;;;5056484;28;20039;-71
2021/09/24 11:45:00;;;;;;;8.63;1.77;;;17.20;98.10;;;;;;5059249;28;20103;-74
2021/09/24 11:47:28;;;;;;;11.20;1.67;;;17.20;98.80;;;;;;5045656;28;20039;-73
2021/09/24 11:49:59;;;;;;;9.18;1.88;;;17.10;98.40;;;;;;5054002;28;20017;-74
2021/09/24 11:52:41;;;;;;;8.75;1.77;;;17.10;98.80;;;;;;5059483;28;20041;-73
2021/09/24 11:55:12;;;;;;;12.63;1.98;;;17.00;99.10;;;;;;5061590;28;20035;-73
2021/09/24 11:57:38;;;;;;;9.70;1.73;;;17.00;99.60;;;;;;5059909;28;20449;-73
2021/09/24 12:00:04;;;;;;;5.65;1.45;;;17.00;99.90;;;;;;5063489;28;20115;-75
2021/09/24 12:02:30;;;;;;;8.25;1.73;;;16.90;99.90;;;;;;5063958;28;20024;-75
2021/09/24 12:05:00;;;;;;;8.38;2.13;;;17.00;99.90;;;;;;5060259;28;21578;-75
2021/09/24 12:07:26;;;;;;;8.23;1.60;;;17.20;99.90;;;;;;5068134;28;20801;-75
2021/09/24 12:10:02;;;;;;;7.75;1.60;;;17.30;99.70;;;;;;5051123;28;20024;-75
2021/09/24 12:12:29;;;;;;;8.35;1.40;;;17.30;99.50;;;;;;5077147;28;20035;-75
2021/09/24 12:15:01;;;;;;;5.72;1.30;;;17.40;99.90;;;;;;5067130;28;20024;-80
2021/09/24 12:17:28;;;;;;;5.90;1.30;;;17.40;99.90;;;;;;5056483;28;20521;-76
2021/09/24 12:19:55;;;;;;;6.75;1.48;;;17.40;99.90;;;;;;5061026;28;20033;-79
2021/09/24 12:22:21;;;;;;;7.93;1.38;;;17.30;99.90;;;;;;5054460;28;20059;-75
2021/09/24 12:24:47;;;;;;;2.25;1.20;;;17.20;99.90;;;;;;5056841;28;20032;-75
2021/09/24 12:27:29;;;;;;;8.00;1.70;;;17.10;99.90;;;;;;5056832;28;20029;-74
2021/09/24 12:29:54;;;;;;;5.20;1.17;;;17.00;99.90;;;;;;5065415;28;20444;-75
2021/09/24 12:32:24;;;;;;;11.05;1.85;;;17.00;99.90;;;;;;5068683;28;20024;-73
2021/09/24 12:35:09;;;;;;;5.30;1.42;;;17.00;99.90;;;;;;5071035;28;20494;-73
2021/09/24 12:37:40;;;;;;;7.47;1.40;;;17.00;99.90;;;;;;5060328;28;20043;-73
2021/09/24 12:40:09;;;;;;;12.15;2.00;;;17.10;99.90;;;;;;5064446;28;20142;-74
2021/09/24 12:42:40;;;;;;;4.13;1.00;;;17.10;99.90;;;;;;5061772;28;20028;-74
2021/09/24 12:45:09;;;;;;;4.47;1.40;;;17.20;99.90;;;;;;5063322;28;20020;-73